createdAt,value
2023-03-02T00:01:52.478Z,1.9
2023-03-02T00:05:17.650Z,1.88
2023-03-02T00:08:42.821Z,1.88
2023-03-02T00:12:08.031Z,1.87
2023-03-02T00:15:33.236Z,1.89
2023-03-02T00:18:58.330Z,1.91
2023-03-02T00:22:23.489Z,1.95
2023-03-02T00:25:48.654Z,1.99
2023-03-02T00:29:13.839Z,2.07
2023-03-02T00:32:38.985Z,2.17
2023-03-02T00:36:04.198Z,2.27
2023-03-02T00:39:29.314Z,2.27
2023-03-02T00:42:54.484Z,2.25
2023-03-02T00:46:19.698Z,2.25
2023-03-02T00:49:44.803Z,2.26
2023-03-02T00:53:09.976Z,2.27
2023-03-02T00:56:35.311Z,2.29
2023-03-02T01:00:00.303Z,2.36
2023-03-02T01:03:25.544Z,2.43
2023-03-02T01:06:50.646Z,2.44
2023-03-02T01:10:15.852Z,2.41
2023-03-02T01:13:41.041Z,2.36
2023-03-02T01:17:06.211Z,2.28
2023-03-02T01:20:31.415Z,2.19
2023-03-02T01:23:56.566Z,2.1
2023-03-02T01:27:21.741Z,2.02
2023-03-02T01:30:46.925Z,1.95
2023-03-02T01:34:12.053Z,1.9
2023-03-02T01:37:37.362Z,1.82
2023-03-02T01:41:02.409Z,1.73
2023-03-02T01:44:27.596Z,1.61
2023-03-02T01:47:52.782Z,1.52
2023-03-02T01:51:17.974Z,1.43
2023-03-02T01:54:43.148Z,1.34
2023-03-02T01:58:08.295Z,1.27
2023-03-02T02:01:33.468Z,1.24
2023-03-02T02:04:58.610Z,1.26
2023-03-02T02:08:23.809Z,1.26
2023-03-02T02:11:48.979Z,1.27
2023-03-02T02:15:14.103Z,1.26
2023-03-02T02:18:39.278Z,1.28
2023-03-02T02:22:04.458Z,1.32
2023-03-02T02:25:29.655Z,1.34
2023-03-02T02:28:54.842Z,1.37
2023-03-02T02:32:20.212Z,1.46
2023-03-02T02:35:45.158Z,1.57
2023-03-02T02:39:10.304Z,1.63
2023-03-02T02:42:35.486Z,1.73
2023-03-02T02:46:00.871Z,1.78
2023-03-02T02:49:25.827Z,1.75
2023-03-02T02:52:50.993Z,1.7
2023-03-02T02:56:16.140Z,1.62
2023-03-02T02:59:41.299Z,1.57
2023-03-02T03:03:07.138Z,1.54
2023-03-02T03:06:32.522Z,1.56
2023-03-02T03:09:57.528Z,1.63
2023-03-02T03:13:22.633Z,1.73
2023-03-02T03:16:47.817Z,1.79
2023-03-02T03:20:12.940Z,1.84
2023-03-02T03:23:38.126Z,1.88
2023-03-02T03:27:03.274Z,1.89
2023-03-02T03:30:28.423Z,1.91
2023-03-02T03:33:53.601Z,1.91
2023-03-02T03:37:18.818Z,1.9
2023-03-02T03:40:43.923Z,1.93
2023-03-02T03:44:09.098Z,1.98
2023-03-02T03:47:34.273Z,2
2023-03-02T03:50:59.439Z,2.05
2023-03-02T03:54:24.604Z,2.09
2023-03-02T03:57:49.739Z,2.14
2023-03-02T04:01:14.937Z,2.16
2023-03-02T04:04:40.059Z,2.12
2023-03-02T04:08:05.259Z,2.07
2023-03-02T04:11:30.451Z,2.03
2023-03-02T04:14:55.580Z,1.98
2023-03-02T04:18:20.715Z,1.96
2023-03-02T04:21:45.884Z,1.97
2023-03-02T04:25:11.054Z,1.98
2023-03-02T04:28:36.263Z,1.96
2023-03-02T04:32:01.580Z,1.94
2023-03-02T04:35:26.760Z,1.94
2023-03-02T04:38:51.908Z,1.96
2023-03-02T04:42:17.063Z,1.98
2023-03-02T04:45:42.250Z,2.01
2023-03-02T04:49:07.450Z,2.03
2023-03-02T04:52:32.624Z,2.04
2023-03-02T04:55:57.776Z,2.05
2023-03-02T04:59:22.965Z,2.01
2023-03-02T05:02:48.152Z,1.94
2023-03-02T05:06:13.299Z,1.92
2023-03-02T05:09:38.461Z,1.9
2023-03-02T05:13:03.638Z,1.9
2023-03-02T05:16:28.906Z,1.89
2023-03-02T05:19:54.022Z,1.89
2023-03-02T05:23:19.161Z,1.86
2023-03-02T05:26:44.332Z,1.82
2023-03-02T05:30:09.500Z,1.77
2023-03-02T05:33:34.650Z,1.67
2023-03-02T05:36:59.844Z,1.55
2023-03-02T05:40:25.017Z,1.47
2023-03-02T05:43:50.198Z,1.4
2023-03-02T05:47:15.405Z,1.36
2023-03-02T05:50:40.517Z,1.27
2023-03-02T05:54:05.727Z,1.21
2023-03-02T05:57:30.875Z,1.17
2023-03-02T06:00:56.063Z,1.16
2023-03-02T06:04:21.224Z,1.17
2023-03-02T06:07:46.441Z,1.17
2023-03-02T06:11:11.659Z,1.21
2023-03-02T06:14:36.861Z,1.29
2023-03-02T06:18:02.102Z,1.36
2023-03-02T06:21:27.326Z,1.43
2023-03-02T06:24:52.532Z,1.48
2023-03-02T06:28:17.792Z,1.49
2023-03-02T06:31:43.010Z,1.58
2023-03-02T06:35:08.259Z,1.68
2023-03-02T06:38:33.322Z,1.77
2023-03-02T06:41:58.471Z,1.86
2023-03-02T06:45:23.800Z,1.94
2023-03-02T06:48:49.624Z,2
2023-03-02T06:52:14.768Z,2.05
2023-03-02T06:55:40.040Z,2.17
2023-03-02T06:59:05.225Z,2.25
2023-03-02T07:02:30.490Z,2.27
2023-03-02T07:05:55.587Z,2.35
2023-03-02T07:09:20.781Z,2.42
2023-03-02T07:12:45.989Z,2.52
2023-03-02T07:16:11.235Z,2.63
2023-03-02T07:19:36.408Z,2.79
2023-03-02T07:23:02.006Z,2.97
2023-03-02T07:26:27.185Z,3.09
2023-03-02T07:29:52.371Z,3.21
2023-03-02T07:33:17.541Z,3.36
2023-03-02T07:36:42.844Z,3.51
2023-03-02T07:40:07.896Z,3.65
2023-03-02T07:43:33.061Z,3.75
2023-03-02T07:46:58.224Z,3.84
2023-03-02T07:50:23.379Z,3.91
2023-03-02T07:53:48.680Z,3.98
2023-03-02T07:57:13.842Z,4.06
2023-03-02T08:00:40.713Z,4.17
2023-03-02T08:04:04.201Z,4.31
2023-03-02T08:07:29.394Z,4.47
2023-03-02T08:10:54.651Z,4.61
2023-03-02T08:14:19.812Z,4.71
2023-03-02T08:17:44.961Z,4.78
2023-03-02T08:21:10.133Z,4.86
2023-03-02T08:24:35.326Z,5.02
2023-03-02T08:28:00.528Z,5.08
2023-03-02T08:31:25.743Z,5.01
2023-03-02T08:34:51.542Z,5.03
2023-03-02T08:38:16.690Z,5.09
2023-03-02T08:41:42.281Z,5.18
2023-03-02T08:45:07.488Z,5.28
2023-03-02T08:48:32.625Z,5.36
2023-03-02T08:51:57.812Z,5.44
2023-03-02T08:55:23.134Z,5.44
2023-03-02T08:58:48.232Z,5.37
2023-03-02T09:02:13.431Z,5.35
2023-03-02T09:05:38.583Z,5.4
2023-03-02T09:09:03.770Z,5.43
2023-03-02T09:12:28.987Z,5.48
2023-03-02T09:15:54.217Z,5.56
2023-03-02T09:19:19.366Z,5.63
2023-03-02T09:22:44.524Z,5.68
2023-03-02T09:26:09.820Z,5.71
2023-03-02T09:29:35.001Z,5.77
2023-03-02T09:33:00.267Z,5.9
2023-03-02T09:36:25.344Z,6.06
2023-03-02T09:39:50.546Z,6.24
2023-03-02T09:43:15.653Z,6.37
2023-03-02T09:46:40.851Z,6.5
2023-03-02T09:50:06.064Z,6.61
2023-03-02T09:53:31.295Z,6.7
2023-03-02T09:56:56.488Z,6.72
2023-03-02T10:00:21.671Z,6.78
2023-03-02T10:03:46.961Z,6.81
2023-03-02T10:07:12.056Z,6.89
2023-03-02T10:10:37.341Z,6.96
2023-03-02T10:14:02.436Z,7.04
2023-03-02T10:17:27.645Z,7.08
2023-03-02T10:20:52.868Z,7.13
2023-03-02T10:24:18.098Z,7.22
2023-03-02T10:27:43.317Z,7.35
2023-03-02T10:31:08.508Z,7.43
2023-03-02T10:34:33.624Z,7.44
2023-03-02T10:37:58.810Z,7.4
2023-03-02T10:41:23.965Z,7.41
2023-03-02T10:44:49.178Z,7.41
2023-03-02T10:48:14.320Z,7.48
2023-03-02T10:51:39.486Z,7.51
2023-03-02T10:55:04.706Z,7.63
2023-03-02T10:58:29.857Z,7.78
2023-03-02T11:01:55.114Z,7.92
2023-03-02T11:05:20.210Z,8.02
2023-03-02T11:08:45.437Z,8.1
2023-03-02T11:12:10.668Z,8.21
2023-03-02T11:15:35.910Z,8.27
2023-03-02T11:19:01.141Z,8.32
2023-03-02T11:22:26.252Z,8.41
2023-03-02T11:25:51.448Z,8.47
2023-03-02T11:29:16.645Z,8.53
2023-03-02T11:32:41.867Z,8.58
2023-03-02T11:36:07.042Z,8.61
2023-03-02T11:39:32.170Z,8.6
2023-03-02T11:42:57.315Z,8.61
2023-03-02T11:46:23.777Z,8.61
2023-03-02T11:49:47.669Z,8.63
2023-03-02T11:53:12.960Z,8.64
2023-03-02T11:56:38.006Z,8.62
2023-03-02T12:00:03.144Z,8.57
2023-03-02T12:03:28.311Z,8.51
2023-03-02T12:06:53.500Z,8.43
2023-03-02T12:10:18.668Z,8.39
2023-03-02T12:13:43.838Z,8.37
2023-03-02T12:17:09.004Z,8.39
2023-03-02T12:20:34.151Z,8.41
2023-03-02T12:23:59.334Z,8.43
2023-03-02T12:27:24.572Z,8.43
2023-03-02T12:30:49.663Z,8.35
2023-03-02T12:34:14.897Z,8.32
2023-03-02T12:37:40.016Z,8.31
2023-03-02T12:41:05.189Z,8.29
2023-03-02T12:44:30.388Z,8.24
2023-03-02T12:47:55.604Z,8.18
2023-03-02T12:51:20.800Z,8.16
2023-03-02T12:54:45.907Z,8.22
2023-03-02T12:58:11.094Z,8.24
2023-03-02T13:01:37.405Z,8.26
2023-03-02T13:05:02.368Z,8.29
2023-03-02T13:08:27.759Z,8.33
2023-03-02T13:11:52.901Z,8.33
2023-03-02T13:15:18.070Z,8.35
2023-03-02T13:18:43.420Z,8.39
2023-03-02T13:22:08.461Z,8.4
2023-03-02T13:25:33.568Z,8.38
2023-03-02T13:28:58.741Z,8.29
2023-03-02T13:32:23.973Z,8.23
2023-03-02T13:35:49.101Z,8.16
2023-03-02T13:39:14.526Z,8.13
2023-03-02T13:42:40.100Z,8.11
2023-03-02T13:46:05.347Z,8.08
2023-03-02T13:49:30.499Z,8.08
2023-03-02T13:52:55.855Z,8.06
2023-03-02T13:56:22.074Z,8.04
2023-03-02T13:59:47.256Z,8.04
2023-03-02T14:03:12.436Z,8.04
2023-03-02T14:06:37.713Z,8.05
2023-03-02T14:10:03.102Z,8.07
2023-03-02T14:13:28.435Z,8.06
2023-03-02T14:16:53.727Z,8
2023-03-02T14:20:19.028Z,8
2023-03-02T14:23:44.363Z,7.96
2023-03-02T14:27:09.660Z,7.94
2023-03-02T14:30:34.933Z,7.89
2023-03-02T15:03:39.656Z,5.21
2023-03-02T15:07:04.877Z,6.09
2023-03-02T15:10:30.186Z,6.25
2023-03-02T15:13:55.553Z,6.39
2023-03-02T15:17:20.848Z,6.5
2023-03-02T15:20:46.237Z,6.56
2023-03-02T15:24:11.583Z,6.62
2023-03-02T15:27:36.922Z,6.63
2023-03-02T15:31:02.202Z,6.62
2023-03-02T15:34:27.572Z,6.62
2023-03-02T15:37:52.890Z,6.62
2023-03-02T15:41:18.236Z,6.61
2023-03-02T15:44:43.565Z,6.6
2023-03-02T15:48:08.906Z,6.6
2023-03-02T15:51:34.209Z,6.59
2023-03-02T15:54:59.539Z,6.58
2023-03-02T15:58:24.830Z,6.57
2023-03-02T16:01:50.125Z,6.54
2023-03-02T16:05:17.490Z,6.49
2023-03-02T16:08:40.721Z,6.44
2023-03-02T16:12:06.014Z,6.42
2023-03-02T16:15:31.268Z,6.39
2023-03-02T16:18:56.567Z,6.34
2023-03-02T16:22:21.886Z,6.29
2023-03-02T16:25:47.196Z,6.24
2023-03-02T16:29:12.634Z,6.17
2023-03-02T16:32:38.039Z,6.12
2023-03-02T16:36:03.226Z,6.09
2023-03-02T16:39:28.498Z,6.05
2023-03-02T16:42:53.756Z,6.04
2023-03-02T16:46:19.143Z,6.03
2023-03-02T16:49:44.372Z,5.99
2023-03-02T16:53:09.664Z,5.97
2023-03-02T16:56:34.965Z,5.95
2023-03-02T17:00:00.324Z,5.95
2023-03-02T17:03:25.834Z,5.97
2023-03-02T17:07:00.346Z,5.97
2023-03-02T17:10:16.506Z,5.95
2023-03-02T17:13:41.799Z,5.92
2023-03-02T17:17:07.108Z,5.89
2023-03-02T17:20:32.432Z,5.92
2023-03-02T17:23:57.688Z,5.92
2023-03-02T17:27:25.557Z,5.85
2023-03-02T17:30:48.561Z,5.8
2023-03-02T17:34:13.842Z,5.77
2023-03-02T17:37:39.238Z,5.75
2023-03-02T17:41:04.490Z,5.72
2023-03-02T17:44:30.477Z,5.68
2023-03-02T17:47:55.798Z,5.63
2023-03-02T17:51:21.114Z,5.6
2023-03-02T17:54:46.448Z,5.57
2023-03-02T17:58:11.765Z,5.55
2023-03-02T18:01:37.156Z,5.56
2023-03-02T18:05:02.421Z,5.6
2023-03-02T18:08:27.736Z,5.64
2023-03-02T18:11:53.110Z,5.6
2023-03-02T18:15:18.422Z,5.56
2023-03-02T18:18:43.756Z,5.59
2023-03-02T18:22:09.040Z,5.66
2023-03-02T18:25:34.331Z,5.7
2023-03-02T18:29:01.095Z,5.74
2023-03-02T18:32:26.893Z,5.75
2023-03-02T18:35:53.340Z,5.76
2023-03-02T18:39:18.832Z,5.74
2023-03-02T18:42:47.681Z,5.73
2023-03-02T18:46:13.342Z,5.71
2023-03-02T18:49:38.587Z,5.73
2023-03-02T18:53:03.934Z,5.76
2023-03-02T18:56:29.301Z,5.78
2023-03-02T18:59:54.604Z,5.77
2023-03-02T19:03:19.948Z,5.74
2023-03-02T19:06:45.194Z,5.7
2023-03-02T19:10:10.455Z,5.63
2023-03-02T19:13:35.731Z,5.57
2023-03-02T19:17:01.041Z,5.51
2023-03-02T19:20:26.354Z,5.46
2023-03-02T19:23:51.632Z,5.39
2023-03-02T19:27:16.920Z,5.35
2023-03-02T19:30:42.188Z,5.35
2023-03-02T19:34:07.506Z,5.37
2023-03-02T19:37:32.862Z,5.39
2023-03-02T19:40:58.119Z,5.4
2023-03-02T19:44:23.413Z,5.42
2023-03-02T19:47:48.725Z,5.45
2023-03-02T19:51:14.004Z,5.45
2023-03-02T19:54:39.291Z,5.47
2023-03-02T19:58:04.523Z,5.47
2023-03-02T20:01:29.897Z,5.5
2023-03-02T20:04:55.114Z,5.56
2023-03-02T20:08:20.449Z,5.64
2023-03-02T20:11:45.719Z,5.69
2023-03-02T20:15:11.029Z,5.71
2023-03-02T20:18:36.269Z,5.66
2023-03-02T20:22:01.571Z,5.59
2023-03-02T20:25:26.864Z,5.54
2023-03-02T20:28:52.156Z,5.51
2023-03-02T20:32:17.557Z,5.5
2023-03-02T20:35:42.813Z,5.44
2023-03-02T20:39:08.068Z,5.41
2023-03-02T20:42:33.379Z,5.37
2023-03-02T20:45:58.722Z,5.34
2023-03-02T20:49:23.998Z,5.28
2023-03-02T20:52:49.172Z,5.21
2023-03-02T20:56:14.413Z,5.14
2023-03-02T20:59:39.625Z,5.08
2023-03-02T21:03:04.874Z,5.03
2023-03-02T21:06:30.063Z,5
2023-03-02T21:09:55.295Z,4.97
2023-03-02T21:13:20.481Z,4.94
2023-03-02T21:16:45.735Z,4.9
2023-03-02T21:20:11.009Z,4.81
2023-03-02T21:23:36.190Z,4.73
2023-03-02T21:27:01.414Z,4.56
2023-03-02T21:30:26.629Z,4.39
2023-03-02T21:33:51.860Z,4.23
2023-03-02T21:37:17.103Z,4.07
2023-03-02T21:40:42.324Z,3.98
2023-03-02T21:44:07.534Z,3.91
2023-03-02T21:47:32.777Z,3.92
2023-03-02T21:50:57.978Z,3.96
2023-03-02T21:54:23.220Z,3.99
2023-03-02T21:57:48.413Z,4.04
2023-03-02T22:01:15.012Z,4.1
2023-03-02T22:04:38.829Z,4.15
2023-03-02T22:08:04.067Z,4.1
2023-03-02T22:11:29.299Z,4.06
2023-03-02T22:14:54.496Z,4.14
2023-03-02T22:18:19.702Z,4.24
2023-03-02T22:21:44.934Z,4.31
2023-03-02T22:25:10.145Z,4.41
2023-03-02T22:28:35.392Z,4.47
2023-03-02T22:32:00.609Z,4.49
2023-03-02T22:35:25.869Z,4.47
2023-03-02T22:38:51.028Z,4.42
2023-03-02T22:42:16.223Z,4.38
2023-03-02T22:45:41.455Z,4.35
2023-03-02T22:49:06.635Z,4.34
2023-03-02T22:52:31.880Z,4.28
2023-03-02T22:55:57.100Z,4.24
2023-03-02T22:59:22.301Z,4.21
2023-03-02T23:02:47.549Z,4.22
2023-03-02T23:06:12.725Z,4.22
2023-03-02T23:09:37.942Z,4.24
2023-03-02T23:13:03.233Z,4.22
2023-03-02T23:16:28.433Z,4.22
2023-03-02T23:19:53.651Z,4.24
2023-03-02T23:23:18.838Z,4.24
2023-03-02T23:26:44.043Z,4.23
2023-03-02T23:30:09.275Z,4.18
2023-03-02T23:33:34.474Z,4.2
2023-03-02T23:36:59.713Z,4.28
2023-03-02T23:40:24.891Z,4.31
2023-03-02T23:43:50.103Z,4.25
2023-03-02T23:47:15.298Z,4.21
2023-03-02T23:50:40.515Z,4.24
2023-03-02T23:54:05.752Z,4.25
2023-03-02T23:57:30.949Z,4.23
